Flight Briefing for CPX437

Departure Arrival
Cincinnati/Northern Kentucky International Airport (KCVG)
Click to view FAA NOTAMS
Philadelphia International Airport (KPHL)
Click to view FAA NOTAMS
Departure Time Arrival Time
N/A N/A
Aircraft Distance
B757-200SF 462nm
Departure METAR Arrival METAR
KCVG 181552Z 35007KT 320V040 10SM FEW041 06/M06 A3038 RMK AO2 SLP292 T00561061 KPHL 181554Z 11005KT 10SM SCT060 BKN080 BKN140 06/M09 A3032 RMK AO2 SLP266 T00561094
Suggested Route
ROCKT9 AHTIY JST BOJID2


View recent IFR Routes data
Notes



Charts and Procedures

Charts for KCVG
No chart available
Charts for KPHL
No chart available

Windy.com Weather Map